createdAt,value
2019-04-04T00:02:33.283Z,8.37
2019-04-04T00:05:09.758Z,8.37
2019-04-04T00:07:44.116Z,8.77
2019-04-04T00:10:17.899Z,8.33
2019-04-04T00:12:53.229Z,8.60
2019-04-04T00:15:30.222Z,8.33
2019-04-04T00:18:02.161Z,8.03
2019-04-04T00:20:34.945Z,8.67
2019-04-04T00:23:07.940Z,8.43
2019-04-04T00:25:40.967Z,8.90
2019-04-04T00:28:15.017Z,9.00
2019-04-04T00:30:52.855Z,8.23
2019-04-04T00:33:27.641Z,9.10
2019-04-04T00:36:03.336Z,9.10
2019-04-04T00:38:38.071Z,8.77
2019-04-04T00:41:13.839Z,8.70
2019-04-04T00:43:58.227Z,8.87
2019-04-04T00:46:32.574Z,8.87
2019-04-04T00:49:06.889Z,8.63
2019-04-04T00:51:43.504Z,8.70
2019-04-04T00:54:18.524Z,8.87
2019-04-04T00:56:53.320Z,8.90
2019-04-04T00:59:28.363Z,9.37
2019-04-04T01:02:03.171Z,9.43
2019-04-04T01:04:38.015Z,8.50
2019-04-04T01:07:11.667Z,8.37
2019-04-04T01:09:45.888Z,9.10
2019-04-04T01:12:21.508Z,8.60
2019-04-04T01:14:55.725Z,8.40
2019-04-04T01:17:29.271Z,8.53
2019-04-04T01:20:03.695Z,8.87
2019-04-04T01:22:37.959Z,8.33
2019-04-04T01:25:12.689Z,8.40
2019-04-04T01:27:46.302Z,8.93
2019-04-04T01:30:22.245Z,8.80
2019-04-04T01:32:56.657Z,8.10
2019-04-04T01:35:30.263Z,9.20
2019-04-04T01:38:06.318Z,9.27
2019-04-04T01:40:39.305Z,9.03
2019-04-04T01:43:13.847Z,8.93
2019-04-04T01:45:48.175Z,8.93
2019-04-04T01:48:23.569Z,9.43
2019-04-04T01:50:59.060Z,9.20
2019-04-04T01:53:32.707Z,8.67
2019-04-04T01:56:07.027Z,9.53
2019-04-04T01:58:43.331Z,9.23
2019-04-04T02:01:20.000Z,9.23
2019-04-04T02:03:54.214Z,8.80
2019-04-04T02:06:29.090Z,8.87
2019-04-04T02:09:03.562Z,8.47
2019-04-04T02:11:38.900Z,9.60
2019-04-04T02:14:19.899Z,9.00
2019-04-04T02:16:53.472Z,9.30
2019-04-04T02:19:24.821Z,9.67
2019-04-04T02:21:57.901Z,8.83
2019-04-04T02:24:29.768Z,9.23
2019-04-04T02:27:01.410Z,9.47
2019-04-04T02:29:32.370Z,9.77
2019-04-04T02:32:06.792Z,8.80
2019-04-04T02:34:38.477Z,9.57
2019-04-04T02:37:09.795Z,9.43
2019-04-04T02:39:40.728Z,9.13
2019-04-04T02:42:11.867Z,9.37
2019-04-04T02:44:43.010Z,9.63
2019-04-04T02:47:16.873Z,8.63
2019-04-04T02:49:46.706Z,8.93
2019-04-04T02:52:17.807Z,8.97
2019-04-04T02:54:48.765Z,9.30
2019-04-04T02:57:19.950Z,9.50
2019-04-04T02:59:53.422Z,9.53
2019-04-04T03:02:24.027Z,9.33
2019-04-04T03:04:55.205Z,9.80
2019-04-04T03:07:30.102Z,9.50
2019-04-04T03:10:00.477Z,9.63
2019-04-04T03:12:31.374Z,9.53
2019-04-04T03:15:02.389Z,9.30
2019-04-04T03:17:33.517Z,9.70
2019-04-04T03:20:04.367Z,9.33
2019-04-04T03:22:35.495Z,9.90
2019-04-04T03:25:07.136Z,9.37
2019-04-04T03:27:38.386Z,10.37
2019-04-04T03:30:14.525Z,10.40
2019-04-04T03:32:51.721Z,10.40
2019-04-04T03:35:16.759Z,10.40
2019-04-04T03:37:48.714Z,10.30
2019-04-04T03:40:20.003Z,10.83
2019-04-04T03:42:50.894Z,10.80
2019-04-04T03:45:26.053Z,10.90
2019-04-04T03:47:54.209Z,11.23
2019-04-04T03:50:29.176Z,10.50
2019-04-04T03:52:58.150Z,10.17
2019-04-04T03:55:29.415Z,9.87
2019-04-04T03:58:00.491Z,10.80
2019-04-04T04:00:32.451Z,10.23
2019-04-04T04:03:03.367Z,11.17
2019-04-04T04:05:36.725Z,10.20
2019-04-04T04:08:07.430Z,9.73
2019-04-04T04:10:39.517Z,9.80
2019-04-04T04:13:11.070Z,10.27
2019-04-04T04:15:42.347Z,10.30
2019-04-04T04:18:13.546Z,10.10
2019-04-04T04:20:44.656Z,10.23
2019-04-04T04:23:15.753Z,10.07
2019-04-04T04:25:46.940Z,10.50
2019-04-04T04:28:20.103Z,10.90
2019-04-04T04:30:50.839Z,11.57
2019-04-04T04:33:22.075Z,10.50
2019-04-04T04:35:53.421Z,10.60
2019-04-04T04:38:26.769Z,11.40
2019-04-04T04:40:57.264Z,10.73
2019-04-04T04:43:32.381Z,11.73
2019-04-04T04:46:00.909Z,11.03
2019-04-04T04:48:32.052Z,12.00
2019-04-04T04:51:03.302Z,10.97
2019-04-04T04:53:34.649Z,10.47
2019-04-04T04:56:05.991Z,10.33
2019-04-04T04:58:41.740Z,11.60
2019-04-04T05:01:11.773Z,11.43
2019-04-04T05:03:43.169Z,10.93
2019-04-04T05:06:14.551Z,11.17
2019-04-04T05:08:46.316Z,10.57
2019-04-04T05:11:19.010Z,9.90
2019-04-04T05:13:50.963Z,11.10
2019-04-04T05:16:21.984Z,11.27
2019-04-04T05:18:53.347Z,11.30
2019-04-04T05:21:28.751Z,10.87
2019-04-04T05:23:58.795Z,10.80
2019-04-04T05:26:30.004Z,10.57
2019-04-04T05:29:01.004Z,10.53
2019-04-04T05:32:16.148Z,11.10
2019-04-04T05:34:53.072Z,11.77
2019-04-04T05:37:28.921Z,11.50
2019-04-04T05:40:02.918Z,11.50
2019-04-04T05:42:39.190Z,11.10
2019-04-04T05:45:14.429Z,11.13
2019-04-04T05:47:48.323Z,11.13
2019-04-04T05:50:21.521Z,10.33
2019-04-04T05:52:56.163Z,11.60
2019-04-04T05:55:28.698Z,11.77
2019-04-04T05:58:00.825Z,11.30
2019-04-04T06:00:35.147Z,10.90
2019-04-04T06:03:12.965Z,11.23
2019-04-04T06:05:47.016Z,11.37
2019-04-04T06:08:19.613Z,9.83
2019-04-04T06:10:51.686Z,10.40
2019-04-04T06:13:24.972Z,10.90
2019-04-04T06:15:56.914Z,12.60
2019-04-04T06:18:29.994Z,10.77
2019-04-04T06:21:02.016Z,10.60
2019-04-04T06:23:34.466Z,11.10
2019-04-04T06:26:08.055Z,12.03
2019-04-04T06:28:39.364Z,10.43
2019-04-04T06:31:11.270Z,11.10
2019-04-04T06:33:43.543Z,11.53
2019-04-04T06:36:17.532Z,10.73
2019-04-04T06:38:50.106Z,11.10
2019-04-04T06:41:21.890Z,11.53
2019-04-04T06:43:53.390Z,11.50
2019-04-04T06:46:25.149Z,11.80
2019-04-04T06:48:56.932Z,10.97
2019-04-04T06:51:28.055Z,11.50
2019-04-04T06:53:59.750Z,11.23
2019-04-04T06:56:32.019Z,11.17
2019-04-04T06:59:04.077Z,11.30
2019-04-04T07:01:35.073Z,12.00
2019-04-04T07:04:06.624Z,11.37
2019-04-04T07:06:41.604Z,10.70
2019-04-04T07:09:13.334Z,10.73
2019-04-04T07:11:44.797Z,10.80
2019-04-04T07:14:16.797Z,11.43
2019-04-04T07:16:48.673Z,11.47
2019-04-04T07:19:20.322Z,11.80
2019-04-04T07:21:52.042Z,11.63
2019-04-04T07:24:24.851Z,11.87
2019-04-04T07:26:56.741Z,10.77
2019-04-04T07:29:27.830Z,11.43
2019-04-04T07:31:59.379Z,12.17
2019-04-04T07:34:31.075Z,11.80
2019-04-04T07:37:02.735Z,12.47
2019-04-04T07:39:34.007Z,12.17
2019-04-04T07:42:05.313Z,11.97
2019-04-04T07:44:37.597Z,12.10
2019-04-04T07:47:09.215Z,13.40
2019-04-04T07:49:40.917Z,11.93
2019-04-04T07:52:13.135Z,11.60
2019-04-04T07:54:44.729Z,11.20
2019-04-04T07:57:19.457Z,12.27
2019-04-04T07:59:49.473Z,11.87
2019-04-04T08:02:22.872Z,11.83
2019-04-04T08:04:54.367Z,12.80
2019-04-04T08:07:25.647Z,12.40
2019-04-04T08:09:57.316Z,12.40
2019-04-04T08:12:28.345Z,12.23
2019-04-04T08:14:59.273Z,12.43
2019-04-04T08:17:30.786Z,12.70
2019-04-04T08:20:01.878Z,11.93
2019-04-04T08:22:33.598Z,12.63
2019-04-04T08:25:05.320Z,12.87
2019-04-04T08:27:37.189Z,12.10
2019-04-04T08:30:09.661Z,12.33
2019-04-04T08:32:41.366Z,12.43
2019-04-04T08:35:13.197Z,12.50
2019-04-04T08:37:44.394Z,12.63
2019-04-04T08:40:16.070Z,12.97
2019-04-04T08:42:47.215Z,12.83
2019-04-04T08:45:19.076Z,12.80
2019-04-04T08:47:50.899Z,11.93
2019-04-04T08:50:22.435Z,13.03
2019-04-04T08:52:53.840Z,12.80
2019-04-04T08:55:25.615Z,13.30
2019-04-04T08:57:56.734Z,13.60
2019-04-04T09:00:27.727Z,12.93
2019-04-04T09:02:59.516Z,12.47
2019-04-04T09:05:31.110Z,13.30
2019-04-04T09:08:02.836Z,12.37
2019-04-04T09:10:35.095Z,13.23
2019-04-04T09:13:06.806Z,13.23
2019-04-04T09:15:37.839Z,12.30
2019-04-04T09:18:08.886Z,13.07
2019-04-04T09:20:40.408Z,12.30
2019-04-04T09:23:13.302Z,12.73
2019-04-04T09:25:45.455Z,13.10
2019-04-04T09:28:17.610Z,12.37
2019-04-04T09:30:49.143Z,13.77
2019-04-04T09:33:21.087Z,13.20
2019-04-04T09:35:55.642Z,12.57
2019-04-04T09:38:29.143Z,13.20
2019-04-04T09:41:00.457Z,13.50
2019-04-04T09:43:31.552Z,13.10
2019-04-04T09:46:03.155Z,12.30
2019-04-04T09:48:34.487Z,12.07
2019-04-04T09:51:06.068Z,13.03
2019-04-04T09:53:52.334Z,13.20
2019-04-04T09:56:10.287Z,12.90
2019-04-04T09:58:41.376Z,12.77
2019-04-04T10:01:12.859Z,12.60
2019-04-04T10:03:45.679Z,13.87
2019-04-04T10:06:17.593Z,13.50
2019-04-04T10:08:49.821Z,13.23
2019-04-04T10:11:21.540Z,13.17
2019-04-04T10:13:53.272Z,13.40
2019-04-04T10:16:24.235Z,12.53
2019-04-04T10:18:55.884Z,12.10
2019-04-04T10:21:27.682Z,12.27
2019-04-04T10:23:59.521Z,12.67
2019-04-04T10:26:31.120Z,12.60
2019-04-04T10:29:02.740Z,12.57
2019-04-04T10:31:34.421Z,12.97
2019-04-04T10:34:06.941Z,13.13
2019-04-04T10:36:38.880Z,12.90
2019-04-04T10:39:13.579Z,13.63
2019-04-04T10:41:45.237Z,13.57
2019-04-04T10:44:17.135Z,14.13
2019-04-04T10:46:48.799Z,13.63
2019-04-04T10:49:20.410Z,14.03
2019-04-04T10:51:55.047Z,13.13
2019-04-04T10:54:27.004Z,14.03
2019-04-04T10:56:58.589Z,12.90
2019-04-04T10:59:30.743Z,13.10
2019-04-04T11:02:02.463Z,12.63
2019-04-04T11:04:34.281Z,13.47
2019-04-04T11:07:05.960Z,13.23
2019-04-04T11:09:42.121Z,14.37
2019-04-04T11:12:11.441Z,13.30
2019-04-04T11:14:45.759Z,13.00
2019-04-04T11:17:17.293Z,13.53
2019-04-04T11:19:48.972Z,14.03
2019-04-04T11:22:20.317Z,13.30
2019-04-04T11:24:52.200Z,13.57
2019-04-04T11:27:23.883Z,14.90
2019-04-04T11:29:55.701Z,14.20
2019-04-04T11:32:27.608Z,14.10
2019-04-04T11:34:59.724Z,13.90
2019-04-04T11:37:31.677Z,13.50
2019-04-04T11:40:03.667Z,14.17
2019-04-04T11:42:35.492Z,13.33
2019-04-04T11:45:07.390Z,12.63
2019-04-04T11:47:39.184Z,13.63
2019-04-04T11:50:11.296Z,13.80
2019-04-04T11:52:43.071Z,14.23
2019-04-04T11:55:15.028Z,12.73
2019-04-04T11:57:54.620Z,13.33
2019-04-04T12:00:32.983Z,12.70
2019-04-04T12:03:04.482Z,13.73
2019-04-04T12:05:36.462Z,14.27
2019-04-04T12:08:08.155Z,13.13
2019-04-04T12:10:40.086Z,14.17
2019-04-04T12:13:12.905Z,13.33
2019-04-04T12:15:44.806Z,13.90
2019-04-04T12:18:16.685Z,13.13
2019-04-04T12:20:48.207Z,13.10
2019-04-04T12:27:14.330Z,13.00
2019-04-04T12:29:52.048Z,12.30
2019-04-04T12:32:42.893Z,13.83
2019-04-04T12:35:48.289Z,12.93
2019-04-04T12:38:24.608Z,13.70
2019-04-04T12:40:56.494Z,13.43
2019-04-04T12:43:28.324Z,13.07
2019-04-04T12:46:00.278Z,13.40
2019-04-04T12:48:31.952Z,13.17
2019-04-04T12:51:03.158Z,12.97
2019-04-04T12:53:34.469Z,12.70
2019-04-04T12:56:05.951Z,12.67
2019-04-04T12:58:37.487Z,12.77
2019-04-04T13:01:08.833Z,12.53
2019-04-04T13:03:40.612Z,12.93
2019-04-04T13:06:12.337Z,13.07
2019-04-04T13:08:44.238Z,13.53
2019-04-04T13:11:15.967Z,12.60
2019-04-04T13:13:47.217Z,13.17
2019-04-04T13:16:18.699Z,12.97
2019-04-04T13:18:50.657Z,13.50
2019-04-04T13:21:22.368Z,12.83
2019-04-04T13:23:55.293Z,12.80
2019-04-04T13:26:26.682Z,13.07
2019-04-04T13:28:57.916Z,13.23
2019-04-04T13:31:30.299Z,12.37
2019-04-04T13:34:01.925Z,13.27
2019-04-04T13:36:32.985Z,13.13
2019-04-04T13:39:05.507Z,13.37
2019-04-04T13:41:37.250Z,12.97
2019-04-04T13:44:08.825Z,13.37
2019-04-04T13:46:40.529Z,12.03
2019-04-04T13:49:12.188Z,12.93
2019-04-04T13:51:43.635Z,13.10
2019-04-04T13:54:15.429Z,13.23
2019-04-04T13:56:47.127Z,13.43
2019-04-04T13:59:18.954Z,12.87
2019-04-04T14:01:50.257Z,13.93
2019-04-04T14:04:24.489Z,13.13
2019-04-04T14:06:56.098Z,12.50
2019-04-04T14:09:29.802Z,12.87
2019-04-04T14:12:01.262Z,12.50
2019-04-04T14:14:32.752Z,12.30
2019-04-04T14:17:04.386Z,13.43
2019-04-04T14:19:36.502Z,12.33
2019-04-04T14:22:09.645Z,12.33
2019-04-04T14:24:42.077Z,12.50
2019-04-04T14:27:13.618Z,12.63
2019-04-04T14:29:45.503Z,12.37
2019-04-04T14:32:17.301Z,11.87
2019-04-04T14:34:48.439Z,12.83
2019-04-04T14:37:20.153Z,12.07
2019-04-04T14:39:52.354Z,12.33
2019-04-04T14:42:23.906Z,11.67
2019-04-04T14:44:55.329Z,12.87
2019-04-04T14:47:26.536Z,12.23
2019-04-04T14:49:59.180Z,12.10
2019-04-04T14:52:30.484Z,12.77
2019-04-04T14:55:01.786Z,12.87
2019-04-04T14:57:33.084Z,12.17
2019-04-04T15:00:06.335Z,12.50
2019-04-04T15:02:38.085Z,12.50
2019-04-04T15:05:09.646Z,12.20
2019-04-04T15:07:40.849Z,12.60
2019-04-04T15:10:15.603Z,11.93
2019-04-04T15:12:46.700Z,11.97
2019-04-04T15:15:17.988Z,12.50
2019-04-04T15:17:49.744Z,11.73
2019-04-04T15:20:21.204Z,12.50
2019-04-04T15:22:53.084Z,12.30
2019-04-04T15:25:24.294Z,12.30
2019-04-04T15:27:55.334Z,11.93
2019-04-04T15:30:26.384Z,12.10
2019-04-04T15:32:58.130Z,12.27
2019-04-04T15:35:29.393Z,12.63
2019-04-04T15:38:01.496Z,11.93
2019-04-04T15:40:32.791Z,12.43
2019-04-04T15:43:03.745Z,11.27
2019-04-04T15:45:34.974Z,12.50
2019-04-04T15:48:06.154Z,12.33
2019-04-04T15:50:37.347Z,11.43
2019-04-04T15:53:08.504Z,12.70
2019-04-04T15:55:39.883Z,12.27
2019-04-04T15:58:11.701Z,11.77
2019-04-04T16:00:42.746Z,11.97
2019-04-04T16:03:14.402Z,12.27
2019-04-04T16:05:45.776Z,12.40
2019-04-04T16:08:16.938Z,11.97
2019-04-04T16:10:48.631Z,13.40
2019-04-04T16:13:19.875Z,12.37
2019-04-04T16:15:51.463Z,12.57
2019-04-04T16:18:22.430Z,12.07
2019-04-04T16:20:54.735Z,12.40
2019-04-04T16:23:26.382Z,12.20
2019-04-04T16:25:57.679Z,12.40
2019-04-04T16:28:29.546Z,12.20
2019-04-04T16:31:01.938Z,11.83
2019-04-04T16:33:33.234Z,11.93
2019-04-04T16:36:05.585Z,12.23
2019-04-04T16:38:37.423Z,13.03
2019-04-04T16:41:08.998Z,13.13
2019-04-04T16:43:40.759Z,12.30
2019-04-04T16:46:12.453Z,12.03
2019-04-04T16:48:43.637Z,12.17
2019-04-04T16:51:14.895Z,12.80
2019-04-04T16:53:46.543Z,12.40
2019-04-04T16:56:17.722Z,12.10
2019-04-04T16:58:49.498Z,12.77
2019-04-04T17:01:20.709Z,12.00
2019-04-04T17:04:01.547Z,12.73
2019-04-04T17:06:24.577Z,12.20
2019-04-04T17:08:56.582Z,12.23
2019-04-04T17:11:28.271Z,12.70
2019-04-04T17:13:59.850Z,12.87
2019-04-04T17:16:31.638Z,13.17
2019-04-04T17:19:02.575Z,12.80
2019-04-04T17:21:33.607Z,12.43
2019-04-04T17:24:04.937Z,12.47
2019-04-04T17:26:37.238Z,11.83
2019-04-04T17:29:09.957Z,13.07
2019-04-04T17:31:41.371Z,12.70
2019-04-04T17:34:13.749Z,12.90
2019-04-04T17:36:45.535Z,14.33
2019-04-04T17:39:20.478Z,13.83
2019-04-04T17:41:52.683Z,13.53
2019-04-04T17:44:25.023Z,13.33
2019-04-04T17:46:56.663Z,12.93
2019-04-04T17:49:35.326Z,13.30
2019-04-04T17:52:11.583Z,13.90
2019-04-04T17:55:06.451Z,14.07
2019-04-04T18:01:44.546Z,14.03
2019-04-04T18:04:48.357Z,15.83
2019-04-04T18:08:43.202Z,15.37
2019-04-04T18:12:07.314Z,14.83
2019-04-04T18:18:43.151Z,14.63
2019-04-04T18:21:29.483Z,15.93
2019-04-04T18:24:06.846Z,17.00
2019-04-04T18:26:37.772Z,16.30
2019-04-04T18:29:08.570Z,18.47
2019-04-04T18:31:39.607Z,24.07
2019-04-04T18:34:10.830Z,19.17
2019-04-04T18:36:41.849Z,14.57
2019-04-04T18:39:12.623Z,14.00
2019-04-04T18:41:43.749Z,14.27
2019-04-04T18:44:15.227Z,15.07
2019-04-04T18:46:46.670Z,14.97
2019-04-04T18:49:17.868Z,13.67
2019-04-04T18:51:49.092Z,14.30
2019-04-04T18:54:20.707Z,14.30
2019-04-04T18:56:51.988Z,13.40
2019-04-04T18:59:24.921Z,13.17
2019-04-04T19:01:56.516Z,13.50
2019-04-04T19:04:27.405Z,12.60
2019-04-04T19:06:59.063Z,13.27
2019-04-04T19:09:30.728Z,13.00
2019-04-04T19:12:02.300Z,12.27
2019-04-04T19:14:33.462Z,13.17
2019-04-04T19:17:04.644Z,12.37
2019-04-04T19:19:40.680Z,13.30
2019-04-04T19:22:12.179Z,13.47
2019-04-04T19:24:43.641Z,12.30
2019-04-04T19:27:15.546Z,11.77
2019-04-04T19:29:47.868Z,11.27
2019-04-04T19:32:19.085Z,10.37
2019-04-04T19:34:50.655Z,10.60
2019-04-04T19:37:23.943Z,10.17
2019-04-04T19:39:55.181Z,10.20
2019-04-04T19:42:26.486Z,10.17
2019-04-04T19:44:57.616Z,10.90
2019-04-04T19:47:42.093Z,10.27
2019-04-04T19:50:14.410Z,10.03
2019-04-04T19:52:45.440Z,10.03
2019-04-04T19:55:16.589Z,10.70
2019-04-04T19:57:47.963Z,10.00
2019-04-04T20:00:20.289Z,9.80
2019-04-04T20:02:51.567Z,9.73
2019-04-04T20:05:22.803Z,10.23
2019-04-04T20:07:53.977Z,9.60
2019-04-04T20:10:25.256Z,10.33
2019-04-04T20:12:56.288Z,10.07
2019-04-04T20:15:27.273Z,10.03
2019-04-04T20:17:58.552Z,10.33
2019-04-04T20:20:29.722Z,9.83
2019-04-04T20:23:00.812Z,9.77
2019-04-04T20:25:31.846Z,10.10
2019-04-04T20:28:03.152Z,10.40
2019-04-04T20:30:38.890Z,9.77
2019-04-04T20:33:12.429Z,9.83
2019-04-04T20:35:43.537Z,10.47
2019-04-04T20:38:14.648Z,10.20
2019-04-04T20:40:46.289Z,9.80
2019-04-04T20:43:17.755Z,9.90
2019-04-04T20:45:48.633Z,9.47
2019-04-04T20:48:19.598Z,9.33
2019-04-04T20:50:50.995Z,8.70
2019-04-04T20:53:22.603Z,9.20
2019-04-04T20:55:53.697Z,9.80
2019-04-04T20:58:25.161Z,8.90
2019-04-04T21:00:56.420Z,9.90
2019-04-04T21:03:27.917Z,9.40
2019-04-04T21:05:59.216Z,9.33
2019-04-04T21:08:30.376Z,9.73
2019-04-04T21:11:01.460Z,9.67
2019-04-04T21:13:32.601Z,9.27
2019-04-04T21:16:06.479Z,9.23
2019-04-04T21:18:37.625Z,8.73
2019-04-04T21:21:08.977Z,9.43
2019-04-04T21:23:42.736Z,9.37
2019-04-04T21:26:13.929Z,8.90
2019-04-04T21:28:45.108Z,9.23
2019-04-04T21:31:16.460Z,9.63
2019-04-04T21:33:48.908Z,9.70
2019-04-04T21:36:20.235Z,9.87
2019-04-04T21:38:51.517Z,9.43
2019-04-04T21:41:22.490Z,9.23
2019-04-04T21:43:53.636Z,9.00
2019-04-04T21:46:24.656Z,9.53
2019-04-04T21:48:55.840Z,9.10
2019-04-04T21:51:26.858Z,9.10
2019-04-04T21:53:58.024Z,9.20
2019-04-04T21:56:29.144Z,9.10
2019-04-04T21:59:00.278Z,8.70
2019-04-04T22:01:31.340Z,9.50
2019-04-04T22:04:02.733Z,8.73
2019-04-04T22:06:33.727Z,8.87
2019-04-04T22:09:09.262Z,9.10
2019-04-04T22:11:40.494Z,9.77
2019-04-04T22:14:21.023Z,9.87
2019-04-04T22:16:44.438Z,9.17
2019-04-04T22:19:15.656Z,10.07
2019-04-04T22:21:46.751Z,9.63
2019-04-04T22:24:17.777Z,9.50
2019-04-04T22:26:48.995Z,9.37
2019-04-04T22:29:19.847Z,9.40
2019-04-04T22:31:50.818Z,10.13
2019-04-04T22:34:21.712Z,9.90
2019-04-04T22:36:52.706Z,10.33
2019-04-04T22:39:23.517Z,10.10
2019-04-04T22:41:54.303Z,9.97
2019-04-04T22:44:34.544Z,10.10
2019-04-04T22:46:57.563Z,10.30
2019-04-04T22:49:28.401Z,10.17
2019-04-04T22:51:59.198Z,10.20
2019-04-04T22:54:29.988Z,11.47
2019-04-04T22:57:00.955Z,10.13
2019-04-04T22:59:32.743Z,10.33
2019-04-04T23:02:03.604Z,10.70
2019-04-04T23:04:34.442Z,9.53
2019-04-04T23:07:05.465Z,9.40
2019-04-04T23:09:36.326Z,10.03
2019-04-04T23:12:07.157Z,10.37
2019-04-04T23:14:47.907Z,9.63
2019-04-04T23:17:10.484Z,9.77
2019-04-04T23:19:41.424Z,9.57
2019-04-04T23:22:12.267Z,10.87
2019-04-04T23:24:43.313Z,11.10
2019-04-04T23:27:14.109Z,10.30
2019-04-04T23:29:45.214Z,10.47
2019-04-04T23:32:16.001Z,11.03
2019-04-04T23:34:47.040Z,10.37
2019-04-04T23:37:17.783Z,10.97
2019-04-04T23:39:48.850Z,14.83
2019-04-04T23:42:19.709Z,12.53
2019-04-04T23:45:00.320Z,10.80
2019-04-04T23:47:23.072Z,10.10
2019-04-04T23:49:54.097Z,9.83
2019-04-04T23:52:25.070Z,9.73
2019-04-04T23:54:56.041Z,9.57
2019-04-04T23:57:26.886Z,9.40
2019-04-04T23:59:57.869Z,9.37
